Virtual Washington ARTCC

Weather

KBWI 241654Z 07006KT 10SM SCT028 OVC040 17/13 A2974 RMK AO2 SLP069 T01720133
KDCA 241652Z 11008KT 10SM BKN026 OVC040 18/14 A2973 RMK AO2 SLP065 T01830139
KIAD 241654Z 11007KT 10SM SCT018 BKN028 OVC040 17/12 A2972 RMK AO2 T01720122
KORF 241651Z 07006KT 10SM OVC011 17/15 A2972 RMK AO2 SLP065 T01720150
KRDU 241723Z 14004KT 10SM FEW012 SCT020 OVC040 22/19 A2967 RMK AO2 PRESFR T02220189

Events



No Events on the scope. Click to learn more about the ZDC events department. Details


ZDC Activity

No controllers online.

News



The information contained on all pages of this website is to be used for flight simulation purposes only on the VATSIM network. It is not intended nor should it be used for real world navigation.This site is not affiliated with the FAA, the actual Washington Center or any governing aviation body. All content contained herein is approved only for use on the VATSIM network. ©2016 Virtual Washington ARTCC -- Source Code © 2016-2017 W. Guisbond and R. Rump.